sensor_id;sensor_type;location;lat;lon;timestamp;pressure;altitude;pressure_sealevel;temperature;humidity
64713;BME280;51140;45.340;5.980;2023-05-19T07:10:53;98348.97;;;23.73;46.60
64713;BME280;51140;45.340;5.980;2023-05-19T07:20:12;98236.34;;;26.84;37.99
64713;BME280;51140;45.340;5.980;2023-05-19T07:25:39;98255.53;;;16.41;55.31
64713;BME280;51140;45.340;5.980;2023-05-19T07:28:05;98259.91;;;15.13;60.36
64713;BME280;51140;45.340;5.980;2023-05-19T07:30:30;98253.44;;;15.01;62.10
64713;BME280;51140;45.340;5.980;2023-05-19T07:32:56;98254.63;;;14.71;63.14
64713;BME280;51140;45.340;5.980;2023-05-19T07:35:21;98259.66;;;14.54;62.47
64713;BME280;51140;45.340;5.980;2023-05-19T07:37:48;98255.41;;;14.29;66.40
64713;BME280;51140;45.340;5.980;2023-05-19T07:40:13;98254.53;;;14.81;64.50
64713;BME280;51140;45.340;5.980;2023-05-19T07:42:39;98247.00;;;14.83;63.66
64713;BME280;51140;45.340;5.980;2023-05-19T07:45:05;98251.84;;;14.81;62.68
64713;BME280;51140;45.340;5.980;2023-05-19T07:47:31;98247.41;;;14.71;62.55
64713;BME280;51140;45.340;5.980;2023-05-19T07:49:56;98250.03;;;14.76;63.21
64713;BME280;51140;45.340;5.980;2023-05-19T07:52:21;98255.59;;;14.80;62.70
64713;BME280;51140;45.340;5.980;2023-05-19T07:54:47;98248.72;;;14.74;64.65
64713;BME280;51140;45.340;5.980;2023-05-19T07:57:12;98253.38;;;14.45;63.51
64713;BME280;51140;45.340;5.980;2023-05-19T07:59:39;98252.91;;;14.14;63.60
64713;BME280;51140;45.340;5.980;2023-05-19T08:02:04;98244.03;;;14.18;64.59
64713;BME280;51140;45.340;5.980;2023-05-19T08:04:30;98248.91;;;14.40;66.62
64713;BME280;51140;45.340;5.980;2023-05-19T08:06:55;98235.63;;;14.54;66.73
64713;BME280;51140;45.340;5.980;2023-05-19T08:09:20;98228.78;;;14.66;66.01
64713;BME280;51140;45.340;5.980;2023-05-19T08:11:46;98230.44;;;15.00;62.11
64713;BME280;51140;45.340;5.980;2023-05-19T08:14:11;98231.25;;;15.00;63.54
64713;BME280;51140;45.340;5.980;2023-05-19T08:16:37;98229.66;;;14.80;65.10
64713;BME280;51140;45.340;5.980;2023-05-19T08:19:02;98226.34;;;14.88;61.88
64713;BME280;51140;45.340;5.980;2023-05-19T08:21:29;98226.31;;;14.70;63.38
64713;BME280;51140;45.340;5.980;2023-05-19T08:23:58;98224.22;;;14.67;64.82
64713;BME280;51140;45.340;5.980;2023-05-19T08:26:24;98227.78;;;14.81;63.84
64713;BME280;51140;45.340;5.980;2023-05-19T08:28:50;98227.56;;;14.77;64.12
64713;BME280;51140;45.340;5.980;2023-05-19T08:31:15;98223.94;;;14.87;65.64
64713;BME280;51140;45.340;5.980;2023-05-19T08:33:42;98219.72;;;15.18;66.15
64713;BME280;51140;45.340;5.980;2023-05-19T08:36:08;98212.94;;;15.26;61.88
64713;BME280;51140;45.340;5.980;2023-05-19T08:38:33;98210.78;;;15.41;63.92
64713;BME280;51140;45.340;5.980;2023-05-19T08:40:58;98197.63;;;16.32;59.77
64713;BME280;51140;45.340;5.980;2023-05-19T08:43:24;98203.00;;;17.70;58.06
64713;BME280;51140;45.340;5.980;2023-05-19T08:45:51;98205.41;;;17.49;57.20
64713;BME280;51140;45.340;5.980;2023-05-19T08:48:18;98203.22;;;17.29;56.63
64713;BME280;51140;45.340;5.980;2023-05-19T08:50:58;98203.03;;;17.26;56.33
64713;BME280;51140;45.340;5.980;2023-05-19T08:53:32;98197.28;;;17.18;57.42
64713;BME280;51140;45.340;5.980;2023-05-19T08:56:03;98196.13;;;17.11;55.98
64713;BME280;51140;45.340;5.980;2023-05-19T08:58:37;98204.31;;;17.28;56.88
64713;BME280;51140;45.340;5.980;2023-05-19T09:01:03;98189.59;;;18.26;55.09
64713;BME280;51140;45.340;5.980;2023-05-19T09:03:31;98177.75;;;19.73;51.18
64713;BME280;51140;45.340;5.980;2023-05-19T09:06:11;98184.19;;;18.57;52.15
64713;BME280;51140;45.340;5.980;2023-05-19T09:08:38;98170.16;;;18.21;53.53
64713;BME280;51140;45.340;5.980;2023-05-19T09:11:03;98175.00;;;18.02;51.99
64713;BME280;51140;45.340;5.980;2023-05-19T09:13:29;98171.06;;;17.99;51.59
64713;BME280;51140;45.340;5.980;2023-05-19T09:15:56;98184.28;;;17.87;52.59
64713;BME280;51140;45.340;5.980;2023-05-19T09:18:23;98176.78;;;17.76;53.82
64713;BME280;51140;45.340;5.980;2023-05-19T09:20:49;98183.19;;;17.13;56.27
64713;BME280;51140;45.340;5.980;2023-05-19T09:23:16;98178.94;;;17.12;55.04
64713;BME280;51140;45.340;5.980;2023-05-19T09:25:52;98174.69;;;16.75;59.32
64713;BME280;51140;45.340;5.980;2023-05-19T09:28:28;98184.19;;;16.95;59.55
64713;BME280;51140;45.340;5.980;2023-05-19T09:31:05;98179.25;;;16.88;59.20
64713;BME280;51140;45.340;5.980;2023-05-19T09:33:33;98182.47;;;16.99;56.56
64713;BME280;51140;45.340;5.980;2023-05-19T09:35:59;98180.78;;;17.03;54.97
64713;BME280;51140;45.340;5.980;2023-05-19T09:38:26;98167.22;;;16.64;61.19
64713;BME280;51140;45.340;5.980;2023-05-19T09:40:52;98178.31;;;16.93;57.67
64713;BME280;51140;45.340;5.980;2023-05-19T09:43:18;98173.53;;;16.68;56.96
64713;BME280;51140;45.340;5.980;2023-05-19T09:45:43;98169.91;;;16.36;60.65
64713;BME280;51140;45.340;5.980;2023-05-19T09:48:08;98170.56;;;16.06;62.11
64713;BME280;51140;45.340;5.980;2023-05-19T09:50:34;98182.34;;;16.19;59.45
64713;BME280;51140;45.340;5.980;2023-05-19T09:53:00;98172.31;;;16.11;58.21
64713;BME280;51140;45.340;5.980;2023-05-19T09:55:27;98174.59;;;15.90;61.92
64713;BME280;51140;45.340;5.980;2023-05-19T09:57:56;98170.56;;;16.06;60.23
64713;BME280;51140;45.340;5.980;2023-05-19T10:00:22;98175.69;;;16.16;57.86
64713;BME280;51140;45.340;5.980;2023-05-19T10:02:48;98173.13;;;16.11;61.67
64713;BME280;51140;45.340;5.980;2023-05-19T10:05:16;98176.50;;;15.76;63.80
64713;BME280;51140;45.340;5.980;2023-05-19T10:07:44;98176.19;;;15.91;61.79
64713;BME280;51140;45.340;5.980;2023-05-19T10:10:13;98179.09;;;15.94;57.38
64713;BME280;51140;45.340;5.980;2023-05-19T10:12:40;98178.28;;;15.94;57.21
64713;BME280;51140;45.340;5.980;2023-05-19T10:15:10;98174.59;;;15.90;63.42
64713;BME280;51140;45.340;5.980;2023-05-19T10:17:40;98170.75;;;15.96;59.76
64713;BME280;51140;45.340;5.980;2023-05-19T10:20:08;98167.19;;;16.00;58.83
64713;BME280;51140;45.340;5.980;2023-05-19T10:22:37;98166.69;;;16.12;58.81
64713;BME280;51140;45.340;5.980;2023-05-19T10:25:03;98165.88;;;16.25;58.92
64713;BME280;51140;45.340;5.980;2023-05-19T10:27:29;98163.31;;;16.20;59.64
64713;BME280;51140;45.340;5.980;2023-05-19T10:29:59;98160.38;;;16.44;59.67
64713;BME280;51140;45.340;5.980;2023-05-19T10:32:27;98163.34;;;16.42;57.77
64713;BME280;51140;45.340;5.980;2023-05-19T10:34:58;98164.97;;;16.30;58.08
64713;BME280;51140;45.340;5.980;2023-05-19T10:40:10;98165.56;;;16.40;55.91
64713;BME280;51140;45.340;5.980;2023-05-19T10:42:52;98170.72;;;16.37;59.28
64713;BME280;51140;45.340;5.980;2023-05-19T10:45:22;98161.78;;;16.55;60.89
64713;BME280;51140;45.340;5.980;2023-05-19T10:47:51;98157.59;;;16.49;59.76
64713;BME280;51140;45.340;5.980;2023-05-19T10:50:16;98165.16;;;16.61;58.31
64713;BME280;51140;45.340;5.980;2023-05-19T10:52:42;98156.72;;;16.76;59.12
64713;BME280;51140;45.340;5.980;2023-05-19T10:55:11;98156.25;;;17.18;59.14
64713;BME280;51140;45.340;5.980;2023-05-19T10:57:54;98156.75;;;17.20;59.45
64713;BME280;51140;45.340;5.980;2023-05-19T11:00:27;98158.88;;;17.54;58.45
64713;BME280;51140;45.340;5.980;2023-05-19T11:02:52;98149.19;;;17.84;57.19
64713;BME280;51140;45.340;5.980;2023-05-19T11:05:27;98138.34;;;17.97;54.60
64713;BME280;51140;45.340;5.980;2023-05-19T11:07:56;98137.56;;;17.97;55.60
64713;BME280;51140;45.340;5.980;2023-05-19T11:10:26;98139.13;;;17.89;54.79
64713;BME280;51140;45.340;5.980;2023-05-19T11:12:51;98135.97;;;18.04;56.53
64713;BME280;51140;45.340;5.980;2023-05-19T11:15:16;98133.34;;;18.21;58.41
64713;BME280;51140;45.340;5.980;2023-05-19T11:17:47;98146.78;;;18.30;54.32
64713;BME280;51140;45.340;5.980;2023-05-19T11:20:24;98133.75;;;18.63;51.98
64713;BME280;51140;45.340;5.980;2023-05-19T11:23:15;98141.16;;;18.57;50.19
64713;BME280;51140;45.340;5.980;2023-05-19T11:25:48;98133.56;;;18.59;51.09
64713;BME280;51140;45.340;5.980;2023-05-19T11:28:15;98121.50;;;18.40;53.24
64713;BME280;51140;45.340;5.980;2023-05-19T11:30:44;98120.25;;;18.37;56.13
64713;BME280;51140;45.340;5.980;2023-05-19T11:33:10;98117.34;;;18.08;55.95
64713;BME280;51140;45.340;5.980;2023-05-19T11:35:38;98120.25;;;18.46;53.03
64713;BME280;51140;45.340;5.980;2023-05-19T11:38:04;98121.13;;;18.07;51.49
64713;BME280;51140;45.340;5.980;2023-05-19T11:40:29;98115.91;;;18.02;50.65
64713;BME280;51140;45.340;5.980;2023-05-19T11:42:56;98116.53;;;17.99;51.00
64713;BME280;51140;45.340;5.980;2023-05-19T11:45:25;98117.16;;;17.96;56.14
64713;BME280;51140;45.340;5.980;2023-05-19T11:47:50;98126.34;;;17.55;55.95
64713;BME280;51140;45.340;5.980;2023-05-19T11:50:16;98116.56;;;17.59;52.81
64713;BME280;51140;45.340;5.980;2023-05-19T11:52:45;98119.22;;;17.99;54.19
64713;BME280;51140;45.340;5.980;2023-05-19T11:55:18;98111.09;;;18.55;48.66
64713;BME280;51140;45.340;5.980;2023-05-19T12:00:21;98112.53;;;18.70;53.43
64713;BME280;51140;45.340;5.980;2023-05-19T12:02:47;98110.47;;;18.58;52.99
64713;BME280;51140;45.340;5.980;2023-05-19T12:05:20;98107.66;;;18.72;50.94
64713;BME280;51140;45.340;5.980;2023-05-19T12:07:46;98106.19;;;19.00;49.79
64713;BME280;51140;45.340;5.980;2023-05-19T12:10:14;98106.22;;;19.38;50.74
64713;BME280;51140;45.340;5.980;2023-05-19T12:12:40;98106.06;;;19.52;49.12
64713;BME280;51140;45.340;5.980;2023-05-19T12:15:07;98109.97;;;19.63;47.24
64713;BME280;51140;45.340;5.980;2023-05-19T12:17:32;98098.28;;;19.88;47.92
64713;BME280;51140;45.340;5.980;2023-05-19T12:19:58;98092.31;;;19.82;46.51
64713;BME280;51140;45.340;5.980;2023-05-19T12:22:25;98091.63;;;19.56;50.74
64713;BME280;51140;45.340;5.980;2023-05-19T12:24:51;98094.44;;;19.13;50.10
64713;BME280;51140;45.340;5.980;2023-05-19T12:27:18;98090.22;;;18.69;56.47
64713;BME280;51140;45.340;5.980;2023-05-19T12:29:54;98090.84;;;18.66;54.43
64713;BME280;51140;45.340;5.980;2023-05-19T12:32:27;98083.56;;;18.75;50.29
64713;BME280;51140;45.340;5.980;2023-05-19T12:34:55;98080.59;;;18.77;52.23
64713;BME280;51140;45.340;5.980;2023-05-19T12:37:20;98080.72;;;18.29;54.32
64713;BME280;51140;45.340;5.980;2023-05-19T12:39:47;98080.13;;;18.49;50.59
64713;BME280;51140;45.340;5.980;2023-05-19T12:42:14;98081.06;;;18.62;50.53
64713;BME280;51140;45.340;5.980;2023-05-19T12:44:48;98082.75;;;19.01;50.39
64713;BME280;51140;45.340;5.980;2023-05-19T12:47:17;98075.19;;;18.85;47.21
64713;BME280;51140;45.340;5.980;2023-05-19T12:50:06;98091.50;;;18.72;51.35
64713;BME280;51140;45.340;5.980;2023-05-19T12:52:40;98076.94;;;18.64;50.48
64713;BME280;51140;45.340;5.980;2023-05-19T12:55:07;98079.16;;;18.62;50.26
64713;BME280;51140;45.340;5.980;2023-05-19T12:57:46;98081.97;;;19.00;52.90
64713;BME280;51140;45.340;5.980;2023-05-19T13:00:14;98080.75;;;18.46;50.70
64713;BME280;51140;45.340;5.980;2023-05-19T13:02:55;98076.66;;;18.49;50.23
64713;BME280;51140;45.340;5.980;2023-05-19T13:05:21;98070.13;;;18.67;49.24
64713;BME280;51140;45.340;5.980;2023-05-19T13:07:57;98067.59;;;18.36;52.12
64713;BME280;51140;45.340;5.980;2023-05-19T13:10:24;98067.16;;;18.68;49.68
64713;BME280;51140;45.340;5.980;2023-05-19T13:12:54;98068.41;;;18.71;54.46
64713;BME280;51140;45.340;5.980;2023-05-19T13:15:22;98060.34;;;18.79;53.13
64713;BME280;51140;45.340;5.980;2023-05-19T13:17:48;98063.81;;;18.89;52.20
64713;BME280;51140;45.340;5.980;2023-05-19T13:20:14;98063.03;;;18.62;56.89
64713;BME280;51140;45.340;5.980;2023-05-19T13:22:39;98061.63;;;18.65;50.66
64713;BME280;51140;45.340;5.980;2023-05-19T13:25:05;98049.88;;;18.78;52.70
64713;BME280;51140;45.340;5.980;2023-05-19T13:27:30;98060.16;;;18.84;56.79
64713;BME280;51140;45.340;5.980;2023-05-19T13:29:56;98043.19;;;19.01;49.92
64713;BME280;51140;45.340;5.980;2023-05-19T13:32:22;98045.19;;;19.21;54.31
64713;BME280;51140;45.340;5.980;2023-05-19T13:34:47;98050.16;;;19.02;51.00
64713;BME280;51140;45.340;5.980;2023-05-19T13:37:13;98043.94;;;19.10;51.48
64713;BME280;51140;45.340;5.980;2023-05-19T13:39:38;98049.59;;;18.28;55.30
64713;BME280;51140;45.340;5.980;2023-05-19T13:42:05;98039.75;;;18.83;53.23
64713;BME280;51140;45.340;5.980;2023-05-19T13:44:31;98047.69;;;18.28;52.98
64713;BME280;51140;45.340;5.980;2023-05-19T13:46:56;98038.50;;;18.47;54.94
64713;BME280;51140;45.340;5.980;2023-05-19T13:49:22;98035.34;;;18.27;55.00
64713;BME280;51140;45.340;5.980;2023-05-19T13:51:47;98037.13;;;18.49;55.16
64713;BME280;51140;45.340;5.980;2023-05-19T13:54:13;98032.03;;;18.73;58.93
64713;BME280;51140;45.340;5.980;2023-05-19T13:56:39;98033.59;;;18.83;53.14
64713;BME280;51140;45.340;5.980;2023-05-19T13:59:04;98025.22;;;18.42;52.08
64713;BME280;51140;45.340;5.980;2023-05-19T14:01:30;98030.31;;;18.69;54.16
64713;BME280;51140;45.340;5.980;2023-05-19T14:03:55;98040.72;;;18.10;53.03
64713;BME280;51140;45.340;5.980;2023-05-19T14:06:20;98035.06;;;18.29;55.32
64713;BME280;51140;45.340;5.980;2023-05-19T14:08:46;98034.72;;;18.30;56.55
64713;BME280;51140;45.340;5.980;2023-05-19T14:11:18;98031.22;;;18.47;57.60
64713;BME280;51140;45.340;5.980;2023-05-19T14:13:44;98027.47;;;18.57;51.73
64713;BME280;51140;45.340;5.980;2023-05-19T14:16:10;98025.84;;;18.73;57.69
64713;BME280;51140;45.340;5.980;2023-05-19T14:18:36;98033.94;;;18.39;55.86
64713;BME280;51140;45.340;5.980;2023-05-19T14:21:01;98032.38;;;18.29;54.02
64713;BME280;51140;45.340;5.980;2023-05-19T14:23:26;98019.56;;;18.09;59.97
64713;BME280;51140;45.340;5.980;2023-05-19T14:25:54;98022.84;;;17.89;57.56
64713;BME280;51140;45.340;5.980;2023-05-19T14:28:19;98023.00;;;18.09;58.91
64713;BME280;51140;45.340;5.980;2023-05-19T14:30:45;98024.56;;;17.85;56.13
64713;BME280;51140;45.340;5.980;2023-05-19T14:33:10;98023.16;;;17.96;57.24
64713;BME280;51140;45.340;5.980;2023-05-19T14:35:35;98023.00;;;17.92;56.99
64713;BME280;51140;45.340;5.980;2023-05-19T14:38:01;98023.00;;;18.01;59.23
64713;BME280;51140;45.340;5.980;2023-05-19T14:40:26;98020.47;;;17.87;60.87
64713;BME280;51140;45.340;5.980;2023-05-19T14:42:52;98021.09;;;17.84;62.48
64713;BME280;51140;45.340;5.980;2023-05-19T14:45:17;98016.50;;;17.67;63.21
64713;BME280;51140;45.340;5.980;2023-05-19T14:47:42;98016.34;;;17.90;63.23
64713;BME280;51140;45.340;5.980;2023-05-19T14:50:08;98015.41;;;17.68;62.05
64713;BME280;51140;45.340;5.980;2023-05-19T14:52:33;98013.94;;;17.54;62.54
64713;BME280;51140;45.340;5.980;2023-05-19T14:54:59;98010.44;;;17.53;62.89
64713;BME280;51140;45.340;5.980;2023-05-19T14:57:24;98019.63;;;17.22;62.75
64713;BME280;51140;45.340;5.980;2023-05-19T14:59:50;98015.34;;;17.12;64.59
64713;BME280;51140;45.340;5.980;2023-05-19T15:02:15;98018.28;;;17.02;63.37
64713;BME280;51140;45.340;5.980;2023-05-19T15:04:41;98023.22;;;16.78;66.20
64713;BME280;51140;45.340;5.980;2023-05-19T15:07:06;98031.75;;;16.44;67.20
64713;BME280;51140;45.340;5.980;2023-05-19T15:09:31;98030.78;;;16.18;69.46
64713;BME280;51140;45.340;5.980;2023-05-19T15:11:57;98038.81;;;15.82;71.82
64713;BME280;51140;45.340;5.980;2023-05-19T15:14:25;98038.91;;;15.77;72.06
64713;BME280;51140;45.340;5.980;2023-05-19T15:16:51;98043.94;;;15.78;73.56
64713;BME280;51140;45.340;5.980;2023-05-19T15:19:16;98041.69;;;15.72;73.64
64713;BME280;51140;45.340;5.980;2023-05-19T15:21:42;98034.88;;;15.52;75.60
64713;BME280;51140;45.340;5.980;2023-05-19T15:24:12;98032.47;;;15.37;78.30
64713;BME280;51140;45.340;5.980;2023-05-19T15:26:37;98043.22;;;15.05;78.33
64713;BME280;51140;45.340;5.980;2023-05-19T15:29:03;98032.53;;;15.18;78.04
64713;BME280;51140;45.340;5.980;2023-05-19T15:31:28;98033.31;;;14.92;81.83
64713;BME280;51140;45.340;5.980;2023-05-19T15:33:56;98029.16;;;14.85;79.87
64713;BME280;51140;45.340;5.980;2023-05-19T15:36:32;98031.34;;;14.83;79.58
64713;BME280;51140;45.340;5.980;2023-05-19T15:38:57;98033.94;;;14.70;80.88
64713;BME280;51140;45.340;5.980;2023-05-19T15:41:51;98029.81;;;14.64;81.04
64713;BME280;51140;45.340;5.980;2023-05-19T15:44:27;98028.94;;;14.50;82.03
64713;BME280;51140;45.340;5.980;2023-05-19T15:47:29;98035.97;;;14.46;82.26
64713;BME280;51140;45.340;5.980;2023-05-19T15:50:22;98035.53;;;14.39;82.26
64713;BME280;51140;45.340;5.980;2023-05-19T15:53:21;98030.13;;;14.06;82.84
64713;BME280;51140;45.340;5.980;2023-05-19T15:59:10;98038.47;;;14.18;83.49
64713;BME280;51140;45.340;5.980;2023-05-19T16:01:40;98032.78;;;14.25;83.97
64713;BME280;51140;45.340;5.980;2023-05-19T16:04:27;98045.19;;;14.16;82.84
64713;BME280;51140;45.340;5.980;2023-05-19T16:07:15;98040.50;;;13.89;83.51
64713;BME280;51140;45.340;5.980;2023-05-19T16:10:08;98039.44;;;14.09;83.97
64713;BME280;51140;45.340;5.980;2023-05-19T16:12:49;98037.63;;;13.86;84.04
64713;BME280;51140;45.340;5.980;2023-05-19T16:19:17;98042.09;;;14.09;84.54
64713;BME280;51140;45.340;5.980;2023-05-19T16:22:13;98043.53;;;14.01;84.89
64713;BME280;51140;45.340;5.980;2023-05-19T16:25:18;98042.44;;;14.02;83.39
64713;BME280;51140;45.340;5.980;2023-05-19T16:28:14;98040.44;;;13.94;84.49
64713;BME280;51140;45.340;5.980;2023-05-19T16:44:03;98041.34;;;13.85;85.25
64713;BME280;51140;45.340;5.980;2023-05-19T16:46:28;98030.84;;;13.93;85.98
64713;BME280;51140;45.340;5.980;2023-05-19T16:48:54;98032.63;;;13.79;85.88
64713;BME280;51140;45.340;5.980;2023-05-19T16:55:15;98031.75;;;13.65;87.11
64713;BME280;51140;45.340;5.980;2023-05-19T16:58:16;98032.84;;;14.01;86.50
64713;BME280;51140;45.340;5.980;2023-05-19T17:21:35;98037.72;;;13.75;85.93
64713;BME280;51140;45.340;5.980;2023-05-19T17:27:31;98038.94;;;14.07;86.11
64713;BME280;51140;45.340;5.980;2023-05-19T17:33:44;98042.69;;;14.06;86.34
64713;BME280;51140;45.340;5.980;2023-05-19T17:46:16;98046.09;;;13.69;85.42
64713;BME280;51140;45.340;5.980;2023-05-19T17:52:16;98037.00;;;13.70;86.74
64713;BME280;51140;45.340;5.980;2023-05-19T17:54:43;98044.28;;;13.64;86.73
64713;BME280;51140;45.340;5.980;2023-05-19T17:57:10;98048.84;;;13.83;87.37
64713;BME280;51140;45.340;5.980;2023-05-19T17:59:39;98041.50;;;13.74;87.58
64713;BME280;51140;45.340;5.980;2023-05-19T18:02:04;98050.06;;;13.71;87.12
64713;BME280;51140;45.340;5.980;2023-05-19T18:04:30;98045.06;;;13.46;87.89
64713;BME280;51140;45.340;5.980;2023-05-19T18:06:57;98050.72;;;13.63;88.43
64713;BME280;51140;45.340;5.980;2023-05-19T18:09:25;98048.38;;;13.81;87.01
64713;BME280;51140;45.340;5.980;2023-05-19T18:11:51;98043.72;;;13.67;86.42
64713;BME280;51140;45.340;5.980;2023-05-19T18:14:16;98048.00;;;13.87;87.52
64713;BME280;51140;45.340;5.980;2023-05-19T18:16:42;98044.97;;;13.94;86.63
64713;BME280;51140;45.340;5.980;2023-05-19T18:19:07;98034.59;;;13.92;86.76
64713;BME280;51140;45.340;5.980;2023-05-19T18:21:33;98044.75;;;13.71;86.20
64713;BME280;51140;45.340;5.980;2023-05-19T18:23:58;98040.22;;;13.91;87.00
64713;BME280;51140;45.340;5.980;2023-05-19T18:26:29;98037.88;;;13.84;86.17
64713;BME280;51140;45.340;5.980;2023-05-19T18:28:54;98038.19;;;13.40;88.24
64713;BME280;51140;45.340;5.980;2023-05-19T18:31:21;98044.59;;;13.63;88.00
64713;BME280;51140;45.340;5.980;2023-05-19T18:33:46;98043.19;;;13.47;86.41
64713;BME280;51140;45.340;5.980;2023-05-19T18:36:12;98044.94;;;13.33;87.31
64713;BME280;51140;45.340;5.980;2023-05-19T18:38:39;98042.16;;;13.43;86.32
64713;BME280;51140;45.340;5.980;2023-05-19T18:41:05;98043.56;;;13.59;87.59
64713;BME280;51140;45.340;5.980;2023-05-19T18:43:31;98033.81;;;13.49;87.04
64713;BME280;51140;45.340;5.980;2023-05-19T18:45:56;98039.31;;;13.58;85.47
64713;BME280;51140;45.340;5.980;2023-05-19T18:48:23;98038.59;;;13.52;86.11
64713;BME280;51140;45.340;5.980;2023-05-19T18:50:49;98038.91;;;13.46;86.36
64713;BME280;51140;45.340;5.980;2023-05-19T18:53:15;98039.16;;;13.26;86.00
64713;BME280;51140;45.340;5.980;2023-05-19T18:55:40;98037.69;;;13.14;86.88
64713;BME280;51140;45.340;5.980;2023-05-19T18:58:06;98044.41;;;13.07;87.15
64713;BME280;51140;45.340;5.980;2023-05-19T19:00:33;98038.81;;;13.08;87.32
64713;BME280;51140;45.340;5.980;2023-05-19T19:02:58;98036.16;;;13.32;87.58
64713;BME280;51140;45.340;5.980;2023-05-19T19:05:24;98043.34;;;13.32;85.75
64713;BME280;51140;45.340;5.980;2023-05-19T19:07:49;98042.38;;;13.23;86.32
64713;BME280;51140;45.340;5.980;2023-05-19T19:10:16;98038.19;;;13.16;85.81
64713;BME280;51140;45.340;5.980;2023-05-19T19:12:41;98029.06;;;13.23;86.78
64713;BME280;51140;45.340;5.980;2023-05-19T19:15:07;98037.72;;;13.09;86.50
64713;BME280;51140;45.340;5.980;2023-05-19T19:17:33;98039.91;;;13.02;86.54
64713;BME280;51140;45.340;5.980;2023-05-19T19:19:58;98039.03;;;13.12;86.76
64713;BME280;51140;45.340;5.980;2023-05-19T19:22:23;98047.06;;;13.07;86.25
64713;BME280;51140;45.340;5.980;2023-05-19T19:24:49;98050.50;;;13.12;86.88
64713;BME280;51140;45.340;5.980;2023-05-19T19:27:14;98054.00;;;13.08;86.66
64713;BME280;51140;45.340;5.980;2023-05-19T19:29:44;98057.53;;;12.98;86.93
64713;BME280;51140;45.340;5.980;2023-05-19T19:32:10;98049.63;;;12.88;86.67
64713;BME280;51140;45.340;5.980;2023-05-19T19:34:35;98053.88;;;12.89;86.93
64713;BME280;51140;45.340;5.980;2023-05-19T19:37:00;98053.31;;;12.92;86.72
64713;BME280;51140;45.340;5.980;2023-05-19T19:39:26;98057.78;;;12.68;87.22
64713;BME280;51140;45.340;5.980;2023-05-19T19:41:51;98071.66;;;12.65;87.30
64713;BME280;51140;45.340;5.980;2023-05-19T19:44:18;98065.22;;;12.71;87.28
64713;BME280;51140;45.340;5.980;2023-05-19T19:46:45;98073.88;;;12.58;87.48
64713;BME280;51140;45.340;5.980;2023-05-19T19:49:10;98079.75;;;12.50;88.03
64713;BME280;51140;45.340;5.980;2023-05-19T19:51:36;98074.47;;;12.45;88.70
64713;BME280;51140;45.340;5.980;2023-05-19T19:54:01;98075.97;;;12.61;87.89
64713;BME280;51140;45.340;5.980;2023-05-19T19:56:27;98074.53;;;12.74;87.44
64713;BME280;51140;45.340;5.980;2023-05-19T19:58:52;98079.34;;;12.72;88.51
64713;BME280;51140;45.340;5.980;2023-05-19T20:01:18;98079.06;;;12.73;87.24
64713;BME280;51140;45.340;5.980;2023-05-19T20:03:50;98073.34;;;12.90;87.02
64713;BME280;51140;45.340;5.980;2023-05-19T20:06:16;98098.06;;;12.95;87.29
64713;BME280;51140;45.340;5.980;2023-05-19T20:08:41;98092.25;;;12.88;87.13
64713;BME280;51140;45.340;5.980;2023-05-19T20:11:07;98091.41;;;12.93;86.57
64713;BME280;51140;45.340;5.980;2023-05-19T20:13:32;98091.00;;;12.81;87.29
64713;BME280;51140;45.340;5.980;2023-05-19T20:15:57;98095.28;;;12.77;88.04
64713;BME280;51140;45.340;5.980;2023-05-19T20:18:23;98096.53;;;12.84;87.03
64713;BME280;51140;45.340;5.980;2023-05-19T20:20:49;98099.91;;;12.66;87.40
64713;BME280;51140;45.340;5.980;2023-05-19T20:23:15;98096.28;;;12.86;87.61
64713;BME280;51140;45.340;5.980;2023-05-19T20:25:41;98083.03;;;12.76;87.55
64713;BME280;51140;45.340;5.980;2023-05-19T20:28:07;98086.97;;;12.83;87.76
64713;BME280;51140;45.340;5.980;2023-05-19T20:30:33;98091.44;;;12.88;87.93
64713;BME280;51140;45.340;5.980;2023-05-19T20:32:58;98086.47;;;12.81;87.09
64713;BME280;51140;45.340;5.980;2023-05-19T20:35:23;98079.34;;;13.00;87.70
64713;BME280;51140;45.340;5.980;2023-05-19T20:37:49;98078.47;;;13.10;86.73
64713;BME280;51140;45.340;5.980;2023-05-19T20:40:14;98090.69;;;12.82;87.17
64713;BME280;51140;45.340;5.980;2023-05-19T20:42:40;98088.78;;;12.88;87.53
64713;BME280;51140;45.340;5.980;2023-05-19T20:45:06;98082.63;;;12.92;87.72
64713;BME280;51140;45.340;5.980;2023-05-19T20:47:31;98089.44;;;12.75;87.12
64713;BME280;51140;45.340;5.980;2023-05-19T20:49:57;98085.38;;;12.82;87.59
64713;BME280;51140;45.340;5.980;2023-05-19T20:52:22;98084.91;;;12.75;87.12
64713;BME280;51140;45.340;5.980;2023-05-19T20:54:48;98092.34;;;12.78;87.10
64713;BME280;51140;45.340;5.980;2023-05-19T20:57:13;98086.91;;;12.88;87.37
64713;BME280;51140;45.340;5.980;2023-05-19T20:59:39;98091.81;;;12.76;88.27
64713;BME280;51140;45.340;5.980;2023-05-19T21:02:04;98082.06;;;12.95;88.32
64713;BME280;51140;45.340;5.980;2023-05-19T21:04:30;98087.47;;;12.85;87.06
64713;BME280;51140;45.340;5.980;2023-05-19T21:06:57;98078.94;;;12.88;86.79
64713;BME280;51140;45.340;5.980;2023-05-19T21:09:22;98089.16;;;12.76;86.94
64713;BME280;51140;45.340;5.980;2023-05-19T21:11:48;98088.03;;;12.82;87.40
64713;BME280;51140;45.340;5.980;2023-05-19T21:14:13;98086.06;;;12.64;87.79
64713;BME280;51140;45.340;5.980;2023-05-19T21:16:39;98090.91;;;12.57;87.91
64713;BME280;51140;45.340;5.980;2023-05-19T21:19:06;98089.50;;;12.64;87.02
64713;BME280;51140;45.340;5.980;2023-05-19T21:21:32;98089.56;;;12.59;87.78
64713;BME280;51140;45.340;5.980;2023-05-19T21:23:57;98086.63;;;12.61;87.49
64713;BME280;51140;45.340;5.980;2023-05-19T21:26:23;98086.13;;;12.54;87.88
64713;BME280;51140;45.340;5.980;2023-05-19T21:28:48;98076.03;;;12.51;88.63
64713;BME280;51140;45.340;5.980;2023-05-19T21:31:14;98077.53;;;12.62;87.33
64713;BME280;51140;45.340;5.980;2023-05-19T21:33:39;98078.69;;;12.51;88.23
64713;BME280;51140;45.340;5.980;2023-05-19T21:36:05;98068.25;;;12.59;88.66